createdAt,value
2023-03-14T00:00:16.788Z,39.40
2023-03-14T00:03:03.989Z,36.80
2023-03-14T00:05:31.339Z,43.80
2023-03-14T00:08:00.503Z,32.60
2023-03-14T00:10:28.151Z,22.50
2023-03-14T00:12:55.316Z,36.80
2023-03-14T00:15:22.313Z,34.60
2023-03-14T00:17:49.856Z,48.40
2023-03-14T00:20:17.072Z,70.80
2023-03-14T00:22:44.150Z,77.40
2023-03-14T00:25:13.479Z,48.20
2023-03-14T00:27:40.365Z,83.30
2023-03-14T00:30:09.794Z,40.80
2023-03-14T00:32:37.121Z,49.60
2023-03-14T00:35:04.677Z,63.20
2023-03-14T00:37:31.685Z,80.10
2023-03-14T00:39:59.143Z,39.70
2023-03-14T00:42:26.359Z,41.80
2023-03-14T00:44:53.520Z,37.80
2023-03-14T00:47:20.645Z,41.90
2023-03-14T00:49:48.251Z,37.20
2023-03-14T00:52:15.304Z,29.00
2023-03-14T00:54:42.453Z,39.60
2023-03-14T00:57:09.438Z,19.70
2023-03-14T00:59:36.582Z,34.50
2023-03-14T01:02:12.988Z,37.50
2023-03-14T01:04:58.518Z,35.00
2023-03-14T01:07:25.779Z,34.10
2023-03-14T01:09:53.648Z,27.20
2023-03-14T01:12:20.676Z,28.40
2023-03-14T01:14:47.711Z,23.60
2023-03-14T01:17:14.777Z,26.30
2023-03-14T01:19:41.847Z,33.20
2023-03-14T01:22:09.056Z,21.70
2023-03-14T01:24:37.702Z,30.90
2023-03-14T01:27:04.698Z,21.70
2023-03-14T01:29:31.833Z,34.00
2023-03-14T01:31:58.914Z,34.40
2023-03-14T01:34:26.031Z,36.20
2023-03-14T01:36:53.496Z,36.00
2023-03-14T01:39:20.540Z,33.90
2023-03-14T01:41:49.951Z,33.80
2023-03-14T01:44:17.022Z,35.60
2023-03-14T01:46:49.205Z,39.50
2023-03-14T01:49:33.347Z,33.60
2023-03-14T01:52:12.028Z,25.00
2023-03-14T01:54:52.274Z,29.00
2023-03-14T01:57:47.185Z,19.50
2023-03-14T02:00:17.481Z,28.50
2023-03-14T02:02:55.832Z,30.30
2023-03-14T02:05:27.266Z,32.00
2023-03-14T02:08:00.656Z,17.80
2023-03-14T02:10:34.882Z,31.80
2023-03-14T02:13:05.606Z,31.60
2023-03-14T02:15:40.359Z,28.10
2023-03-14T02:18:15.090Z,29.30
2023-03-14T02:20:48.406Z,38.60
2023-03-14T02:23:21.142Z,39.60
2023-03-14T02:25:59.057Z,46.10
2023-03-14T02:28:28.950Z,43.20
2023-03-14T02:33:27.694Z,27.80
2023-03-14T02:36:01.091Z,23.50
2023-03-14T02:38:31.021Z,46.50
2023-03-14T02:41:00.251Z,40.60
2023-03-14T02:43:28.096Z,32.10
2023-03-14T02:45:59.805Z,41.30
2023-03-14T02:48:30.845Z,37.50
2023-03-14T02:51:00.408Z,30.40
2023-03-14T02:53:31.858Z,27.70
2023-03-14T02:56:01.539Z,24.10
2023-03-14T02:58:30.858Z,19.00
2023-03-14T03:01:05.240Z,22.90
2023-03-14T03:03:32.690Z,29.20
2023-03-14T03:05:59.873Z,16.20
2023-03-14T03:08:28.867Z,25.10
2023-03-14T03:10:58.464Z,24.90
2023-03-14T03:13:27.204Z,27.00
2023-03-14T03:15:54.497Z,22.80
2023-03-14T03:18:21.850Z,36.90
2023-03-14T03:20:52.035Z,35.30
2023-03-14T03:23:18.979Z,28.10
2023-03-14T03:25:50.583Z,22.80
2023-03-14T03:28:18.671Z,30.40
2023-03-14T03:30:45.994Z,19.50
2023-03-14T03:33:13.896Z,29.90
2023-03-14T03:35:49.749Z,37.00
2023-03-14T03:38:20.717Z,32.00
2023-03-14T03:40:49.028Z,31.10
2023-03-14T03:43:16.472Z,24.60
2023-03-14T03:45:44.690Z,19.70
2023-03-14T03:48:11.771Z,38.20
2023-03-14T03:50:45.177Z,40.40
2023-03-14T03:53:15.578Z,44.10
2023-03-14T03:55:42.937Z,46.20
2023-03-14T03:58:09.899Z,42.30
2023-03-14T04:00:36.835Z,27.00
2023-03-14T04:03:03.973Z,60.90
2023-03-14T04:05:31.164Z,40.20
2023-03-14T04:08:05.015Z,36.00
2023-03-14T04:10:37.451Z,31.40
2023-03-14T04:13:13.886Z,22.60
2023-03-14T04:15:43.054Z,37.10
2023-03-14T04:18:16.529Z,28.90
2023-03-14T04:20:44.309Z,45.30
2023-03-14T04:23:12.354Z,35.30
2023-03-14T04:25:39.841Z,37.50
2023-03-14T04:28:06.860Z,39.50
2023-03-14T04:30:34.017Z,36.50
2023-03-14T04:33:07.953Z,44.80
2023-03-14T04:35:38.721Z,34.60
2023-03-14T04:38:09.525Z,20.30
2023-03-14T04:40:41.600Z,44.70
2023-03-14T04:43:10.650Z,42.80
2023-03-14T04:45:42.793Z,27.50
2023-03-14T04:48:10.376Z,41.80
2023-03-14T04:50:38.199Z,42.70
2023-03-14T04:53:05.883Z,37.60
2023-03-14T04:55:33.577Z,32.80
2023-03-14T04:58:00.647Z,20.50
2023-03-14T05:00:27.834Z,24.70
2023-03-14T05:03:00.952Z,72.50
2023-03-14T05:05:59.040Z,37.50
2023-03-14T05:08:39.738Z,112.90
2023-03-14T05:11:33.202Z,31.10
2023-03-14T05:14:20.468Z,45.80
2023-03-14T05:17:00.076Z,45.80
2023-03-14T05:19:46.026Z,50.70
2023-03-14T05:22:28.625Z,51.30
2023-03-14T05:25:09.160Z,67.70
2023-03-14T05:27:55.926Z,73.60
2023-03-14T05:30:41.789Z,48.10
2023-03-14T05:33:23.621Z,64.50
2023-03-14T05:36:13.974Z,57.70
2023-03-14T05:38:59.860Z,51.20
2023-03-14T05:41:46.028Z,72.90
2023-03-14T05:44:28.340Z,126.90
2023-03-14T05:47:14.010Z,126.00
2023-03-14T05:49:54.008Z,74.00
2023-03-14T05:52:50.475Z,60.90
2023-03-14T05:55:31.061Z,38.50
2023-03-14T05:58:15.106Z,57.90
2023-03-14T06:01:06.630Z,46.20
2023-03-14T06:03:54.516Z,33.60
2023-03-14T06:06:24.730Z,19.90
2023-03-14T06:08:51.879Z,18.90
2023-03-14T06:11:18.764Z,18.30
2023-03-14T06:13:46.944Z,26.10
2023-03-14T06:16:15.566Z,24.50
2023-03-14T06:18:43.307Z,17.90
2023-03-14T06:21:10.662Z,25.50
2023-03-14T06:23:40.880Z,15.70
2023-03-14T06:26:08.135Z,23.10
2023-03-14T06:28:36.929Z,24.80
2023-03-14T06:31:11.035Z,16.40
2023-03-14T06:33:49.720Z,19.70
2023-03-14T06:36:17.432Z,19.30
2023-03-14T06:38:46.697Z,17.20
2023-03-14T06:41:14.056Z,25.40
2023-03-14T06:43:43.713Z,11.40
2023-03-14T06:46:11.009Z,13.00
2023-03-14T06:48:39.531Z,22.00
2023-03-14T06:51:07.240Z,16.70
2023-03-14T06:53:35.509Z,15.70
2023-03-14T06:56:03.127Z,23.50
2023-03-14T06:58:31.058Z,19.90
2023-03-14T07:00:59.379Z,18.00
2023-03-14T07:03:34.974Z,12.30
2023-03-14T07:06:03.764Z,10.50
2023-03-14T07:08:31.186Z,11.50
2023-03-14T07:10:58.574Z,13.30
2023-03-14T07:13:25.764Z,9.70
2023-03-14T07:16:00.822Z,11.80
2023-03-14T07:18:28.063Z,17.40
2023-03-14T07:20:55.843Z,17.70
2023-03-14T07:23:22.991Z,20.70
2023-03-14T07:25:54.028Z,14.50
2023-03-14T07:28:23.675Z,23.80
2023-03-14T07:30:57.288Z,21.00
2023-03-14T07:33:31.382Z,21.40
2023-03-14T07:35:58.579Z,24.80
2023-03-14T07:38:26.092Z,12.40
2023-03-14T07:41:11.566Z,16.50
2023-03-14T07:43:55.142Z,10.40
2023-03-14T07:46:22.607Z,18.90
2023-03-14T07:48:49.860Z,12.40
2023-03-14T07:51:17.089Z,12.70
2023-03-14T07:53:44.426Z,16.30
2023-03-14T07:56:11.665Z,14.80
2023-03-14T07:58:38.686Z,17.00
2023-03-14T08:01:05.969Z,16.30
2023-03-14T08:03:33.133Z,13.50
2023-03-14T08:06:00.156Z,12.80
2023-03-14T08:08:27.325Z,10.50
2023-03-14T08:10:54.481Z,13.00
2023-03-14T08:13:21.907Z,10.20
2023-03-14T08:15:49.860Z,9.50
2023-03-14T08:18:17.447Z,13.80
2023-03-14T08:20:44.882Z,7.50
2023-03-14T08:23:17.330Z,9.30
2023-03-14T08:28:16.636Z,18.30
2023-03-14T08:30:47.321Z,14.00
2023-03-14T08:33:14.813Z,12.80
2023-03-14T08:35:42.644Z,18.00
2023-03-14T08:38:13.617Z,12.80
2023-03-14T08:40:40.822Z,11.40
2023-03-14T08:43:08.137Z,13.40
2023-03-14T08:45:38.310Z,12.30
2023-03-14T08:48:08.419Z,8.60
2023-03-14T08:50:35.617Z,9.10
2023-03-14T08:53:06.073Z,15.40
2023-03-14T08:55:34.950Z,12.80
2023-03-14T08:58:05.114Z,14.60
2023-03-14T09:00:32.227Z,11.70
2023-03-14T09:02:59.449Z,11.60
2023-03-14T09:05:38.550Z,11.70
2023-03-14T09:08:06.187Z,12.30
2023-03-14T09:10:54.364Z,11.80
2023-03-14T09:13:23.843Z,20.80
2023-03-14T09:15:54.170Z,9.60
2023-03-14T09:18:21.855Z,9.60
2023-03-14T09:20:51.246Z,19.40
2023-03-14T09:23:18.388Z,16.50
2023-03-14T09:25:47.842Z,11.00
2023-03-14T09:28:18.213Z,10.70
2023-03-14T09:30:45.256Z,19.90
2023-03-14T09:33:15.561Z,16.50
2023-03-14T09:35:42.859Z,14.20
2023-03-14T09:38:20.319Z,23.60
2023-03-14T09:40:54.026Z,17.00
2023-03-14T09:43:47.504Z,13.90
2023-03-14T09:46:25.706Z,11.90
2023-03-14T09:49:06.299Z,18.00
2023-03-14T09:51:54.713Z,18.00
2023-03-14T09:54:37.396Z,17.10
2023-03-14T09:59:35.900Z,21.50
2023-03-14T10:02:17.564Z,19.10
2023-03-14T10:04:46.353Z,19.90
2023-03-14T10:07:19.965Z,10.00
2023-03-14T10:09:51.679Z,14.70
2023-03-14T10:12:19.930Z,13.50
2023-03-14T10:14:50.955Z,13.80
2023-03-14T10:17:19.885Z,21.80
2023-03-14T10:19:59.039Z,13.90
2023-03-14T10:22:30.725Z,14.60
2023-03-14T10:25:25.480Z,13.40
2023-03-14T10:27:52.883Z,13.00
2023-03-14T10:30:39.133Z,11.20
2023-03-14T10:33:23.580Z,10.30
2023-03-14T10:36:16.925Z,13.30
2023-03-14T10:38:44.237Z,20.30
2023-03-14T10:41:26.338Z,11.40
2023-03-14T10:44:02.981Z,8.80
2023-03-14T10:46:33.679Z,7.10
2023-03-14T10:49:35.118Z,6.60
2023-03-14T10:52:31.582Z,7.20
2023-03-14T10:55:18.210Z,10.00
2023-03-14T10:57:45.579Z,38.90
2023-03-14T11:00:23.581Z,16.40
2023-03-14T11:02:53.702Z,13.80
2023-03-14T11:05:48.687Z,11.10
2023-03-14T11:08:23.286Z,8.50
2023-03-14T11:10:58.724Z,12.20
2023-03-14T11:13:34.620Z,14.30
2023-03-14T11:16:26.099Z,13.20
2023-03-14T11:18:56.913Z,9.90
2023-03-14T11:21:43.083Z,11.90
2023-03-14T11:24:13.255Z,10.30
2023-03-14T11:26:56.721Z,13.30
2023-03-14T11:29:45.310Z,8.80
2023-03-14T11:32:25.254Z,15.30
2023-03-14T11:34:54.326Z,16.40
2023-03-14T11:37:41.968Z,7.30
2023-03-14T11:40:09.173Z,9.90
2023-03-14T11:42:41.882Z,9.60
2023-03-14T11:45:31.112Z,7.90
2023-03-14T11:48:46.289Z,6.90
2023-03-14T11:51:52.948Z,6.90
2023-03-14T11:54:51.784Z,5.40
2023-03-14T11:57:24.428Z,5.90
2023-03-14T12:00:10.509Z,7.00
2023-03-14T12:03:09.151Z,9.30
2023-03-14T12:06:21.800Z,6.90
2023-03-14T12:08:59.804Z,7.40
2023-03-14T12:11:53.272Z,9.70
2023-03-14T12:14:33.888Z,7.90
2023-03-14T12:17:15.349Z,6.70
2023-03-14T12:19:42.689Z,6.40
2023-03-14T12:22:31.939Z,6.20
2023-03-14T12:25:27.939Z,6.80
2023-03-14T12:27:55.047Z,7.40
2023-03-14T12:30:27.811Z,9.90
2023-03-14T12:33:10.257Z,7.20
2023-03-14T12:38:36.162Z,7.00
2023-03-14T12:41:21.876Z,22.80
2023-03-14T12:43:52.249Z,6.30
2023-03-14T12:46:26.559Z,8.40
2023-03-14T12:49:03.056Z,6.40
2023-03-14T12:51:44.152Z,7.10
2023-03-14T12:54:17.386Z,5.90
2023-03-14T12:57:02.821Z,5.80
2023-03-14T12:59:36.906Z,4.10
2023-03-14T13:02:10.150Z,12.10
2023-03-14T13:04:48.440Z,5.80
2023-03-14T13:07:44.864Z,5.70
2023-03-14T13:10:11.986Z,6.60
2023-03-14T13:12:48.349Z,5.70
2023-03-14T13:15:38.545Z,4.10
2023-03-14T13:18:15.763Z,5.70
2023-03-14T13:20:53.650Z,7.60
2023-03-14T13:23:34.413Z,4.70
2023-03-14T13:26:07.017Z,5.70
2023-03-14T13:28:36.304Z,5.30
2023-03-14T13:31:06.174Z,5.90
2023-03-14T13:33:41.473Z,4.80
2023-03-14T13:36:10.415Z,5.10
2023-03-14T13:38:37.479Z,3.80
2023-03-14T13:41:07.135Z,5.30
2023-03-14T13:43:42.158Z,5.80
2023-03-14T13:46:25.833Z,6.50
2023-03-14T13:48:57.147Z,6.40
2023-03-14T13:51:25.555Z,7.00
2023-03-14T13:53:55.376Z,9.40
2023-03-14T13:56:26.115Z,7.30
2023-03-14T13:58:56.133Z,8.10
2023-03-14T14:01:35.547Z,5.70
2023-03-14T14:04:19.652Z,6.60
2023-03-14T14:06:52.404Z,8.50
2023-03-14T14:09:51.066Z,12.30
2023-03-14T14:12:29.408Z,8.20
2023-03-14T14:15:05.182Z,7.10
2023-03-14T14:17:39.452Z,5.70
2023-03-14T14:20:15.496Z,6.00
2023-03-14T14:22:42.774Z,4.90
2023-03-14T14:25:16.383Z,7.40
2023-03-14T14:27:49.266Z,7.50
2023-03-14T14:30:19.508Z,7.60
2023-03-14T14:32:49.140Z,6.40
2023-03-14T14:35:31.741Z,8.10
2023-03-14T14:37:59.645Z,6.80
2023-03-14T14:40:29.395Z,10.70
2023-03-14T14:43:04.185Z,6.40
2023-03-14T14:45:34.637Z,9.30
2023-03-14T14:48:01.471Z,9.80
2023-03-14T14:50:39.854Z,10.90
2023-03-14T14:53:41.189Z,7.80
2023-03-14T14:56:22.857Z,11.70
2023-03-14T14:58:49.986Z,8.40
2023-03-14T15:01:24.516Z,10.90
2023-03-14T15:03:53.543Z,7.40
2023-03-14T15:06:22.087Z,8.30
2023-03-14T15:08:49.812Z,7.40
2023-03-14T15:11:25.002Z,9.10
2023-03-14T15:13:53.056Z,11.90
2023-03-14T15:16:28.390Z,6.10
2023-03-14T15:19:01.871Z,8.40
2023-03-14T15:21:30.122Z,8.70
2023-03-14T15:23:57.294Z,6.60
2023-03-14T15:26:27.503Z,7.20
2023-03-14T15:28:54.560Z,7.70
2023-03-14T15:31:21.881Z,12.00
2023-03-14T15:33:49.606Z,10.50
2023-03-14T15:36:26.443Z,27.40
2023-03-14T15:38:55.522Z,10.20
2023-03-14T15:41:23.572Z,10.60
2023-03-14T15:43:51.218Z,9.60
2023-03-14T15:46:19.016Z,9.20
2023-03-14T15:48:46.582Z,8.20
2023-03-14T15:51:13.621Z,8.30
2023-03-14T15:53:43.508Z,9.00
2023-03-14T15:56:16.664Z,11.60
2023-03-14T15:58:46.869Z,14.60
2023-03-14T16:01:16.295Z,10.40
2023-03-14T16:03:48.801Z,7.10
2023-03-14T16:06:16.033Z,16.80
2023-03-14T16:08:43.048Z,9.10
2023-03-14T16:11:11.883Z,11.70
2023-03-14T16:13:39.974Z,13.10
2023-03-14T16:16:08.905Z,10.30
2023-03-14T16:18:38.277Z,9.80
2023-03-14T16:21:12.122Z,9.00
2023-03-14T16:23:39.097Z,10.10
2023-03-14T16:26:08.854Z,26.00
2023-03-14T16:28:39.015Z,24.20
2023-03-14T16:31:09.792Z,37.20
2023-03-14T16:33:38.070Z,23.10
2023-03-14T16:36:11.310Z,13.80
2023-03-14T16:38:42.412Z,40.00
2023-03-14T16:41:15.745Z,33.70
2023-03-14T16:43:43.347Z,19.90
2023-03-14T16:46:16.515Z,17.20
2023-03-14T16:48:44.677Z,20.80
2023-03-14T16:51:11.972Z,20.00
2023-03-14T16:53:38.880Z,39.30
2023-03-14T16:56:06.457Z,33.30
2023-03-14T16:58:33.386Z,19.80
2023-03-14T17:01:09.550Z,24.40
2023-03-14T17:03:41.708Z,32.80
2023-03-14T17:06:16.858Z,31.30
2023-03-14T17:08:46.632Z,20.10
2023-03-14T17:11:13.705Z,36.90
2023-03-14T17:13:40.873Z,33.10
2023-03-14T17:16:08.498Z,41.80
2023-03-14T17:18:36.978Z,34.70
2023-03-14T17:21:05.318Z,51.40
2023-03-14T17:23:33.736Z,42.00
2023-03-14T17:26:18.698Z,39.60
2023-03-14T17:28:46.162Z,51.10
2023-03-14T17:31:16.610Z,41.70
2023-03-14T17:33:45.004Z,38.30
2023-03-14T17:36:15.074Z,34.50
2023-03-14T17:38:42.230Z,55.70
2023-03-14T17:41:14.746Z,40.30
2023-03-14T17:43:42.723Z,60.80
2023-03-14T17:46:14.221Z,54.00
2023-03-14T17:48:44.108Z,38.80
2023-03-14T17:51:12.332Z,45.00
2023-03-14T17:53:40.844Z,54.40
2023-03-14T17:56:08.932Z,45.80
2023-03-14T17:58:37.594Z,59.40
2023-03-14T18:01:14.272Z,50.60
2023-03-14T18:03:42.013Z,42.00
2023-03-14T18:06:10.515Z,69.90
2023-03-14T18:08:43.372Z,41.70
2023-03-14T18:11:11.538Z,43.90
2023-03-14T18:13:39.985Z,51.40
2023-03-14T18:16:13.781Z,53.10
2023-03-14T18:18:42.624Z,50.60
2023-03-14T18:21:11.030Z,34.10
2023-03-14T18:23:38.893Z,45.20
2023-03-14T18:26:08.730Z,38.20
2023-03-14T18:28:39.108Z,46.30
2023-03-14T18:31:11.468Z,47.30
2023-03-14T18:33:41.056Z,62.60
2023-03-14T18:36:09.871Z,46.40
2023-03-14T18:38:42.525Z,45.30
2023-03-14T18:41:12.248Z,48.20
2023-03-14T18:43:39.704Z,38.00
2023-03-14T18:46:06.840Z,57.60
2023-03-14T18:48:33.881Z,50.90
2023-03-14T18:51:01.069Z,70.90
2023-03-14T18:53:31.720Z,56.20
2023-03-14T18:56:00.416Z,51.40
2023-03-14T18:58:28.213Z,62.40
2023-03-14T19:01:01.376Z,60.50
2023-03-14T19:03:30.334Z,44.30
2023-03-14T19:05:58.268Z,147.70
2023-03-14T19:08:27.704Z,78.80
2023-03-14T19:11:00.422Z,66.60
2023-03-14T19:13:28.339Z,85.30
2023-03-14T19:15:55.511Z,60.10
2023-03-14T19:18:23.681Z,39.00
2023-03-14T19:21:09.537Z,53.40
2023-03-14T19:23:39.166Z,51.00
2023-03-14T19:26:06.855Z,36.40
2023-03-14T19:28:34.105Z,38.90
2023-03-14T19:31:03.561Z,35.50
2023-03-14T19:33:31.709Z,30.70
2023-03-14T19:35:59.161Z,27.00
2023-03-14T19:38:26.362Z,34.90
2023-03-14T19:40:58.450Z,22.60
2023-03-14T19:43:26.921Z,22.80
2023-03-14T19:45:57.915Z,23.00
2023-03-14T19:48:29.590Z,35.40
2023-03-14T19:50:59.870Z,53.30
2023-03-14T19:53:26.886Z,48.90
2023-03-14T19:55:54.210Z,44.20
2023-03-14T19:58:24.504Z,39.00
2023-03-14T20:00:51.676Z,44.60
2023-03-14T20:03:23.329Z,41.10
2023-03-14T20:05:52.667Z,23.10
2023-03-14T20:08:23.458Z,37.50
2023-03-14T20:10:50.667Z,35.20
2023-03-14T20:13:21.878Z,29.70
2023-03-14T20:15:52.559Z,24.90
2023-03-14T20:18:41.871Z,23.90
2023-03-14T20:21:14.927Z,54.60
2023-03-14T20:23:43.575Z,50.80
2023-03-14T20:26:10.801Z,57.70
2023-03-14T20:28:37.892Z,52.10
2023-03-14T20:31:08.301Z,32.70
2023-03-14T20:33:35.497Z,47.50
2023-03-14T20:36:02.974Z,39.50
2023-03-14T20:38:30.579Z,46.30
2023-03-14T20:40:59.385Z,41.10
2023-03-14T20:43:31.199Z,38.70
2023-03-14T20:46:00.429Z,61.70
2023-03-14T20:48:29.661Z,70.90
2023-03-14T20:50:57.569Z,54.60
2023-03-14T20:53:24.882Z,58.80
2023-03-14T20:55:55.587Z,55.80
2023-03-14T20:58:24.513Z,43.60
2023-03-14T21:00:54.373Z,39.90
2023-03-14T21:03:23.434Z,37.40
2023-03-14T21:05:51.664Z,36.50
2023-03-14T21:08:23.953Z,46.30
2023-03-14T21:10:53.928Z,38.60
2023-03-14T21:13:21.556Z,30.80
2023-03-14T21:15:48.820Z,53.70
2023-03-14T21:18:16.637Z,38.10
2023-03-14T21:20:44.166Z,56.20
2023-03-14T21:23:12.286Z,31.00
2023-03-14T21:25:43.054Z,43.40
2023-03-14T21:28:11.927Z,44.10
2023-03-14T21:30:39.242Z,30.40
2023-03-14T21:33:06.240Z,24.40
2023-03-14T21:35:33.409Z,41.50
2023-03-14T21:38:00.776Z,39.70
2023-03-14T21:40:27.774Z,38.70
2023-03-14T21:42:55.126Z,36.70
2023-03-14T21:45:26.637Z,32.80
2023-03-14T21:47:56.044Z,29.40
2023-03-14T21:50:25.778Z,51.20
2023-03-14T21:52:56.278Z,45.20
2023-03-14T21:55:24.823Z,45.00
2023-03-14T21:57:54.355Z,30.10
2023-03-14T22:00:21.719Z,39.50
2023-03-14T22:03:11.629Z,48.30
2023-03-14T22:05:46.667Z,39.30
2023-03-14T22:08:15.407Z,41.90
2023-03-14T22:10:47.905Z,46.40
2023-03-14T22:13:16.270Z,45.30
2023-03-14T22:15:46.090Z,50.00
2023-03-14T22:18:15.260Z,52.00
2023-03-14T22:20:43.484Z,58.80
2023-03-14T22:23:11.853Z,53.10
2023-03-14T22:25:43.718Z,45.90
2023-03-14T22:28:10.892Z,31.40
2023-03-14T22:30:38.394Z,37.30
2023-03-14T22:33:05.702Z,40.30
2023-03-14T22:35:33.270Z,34.50
2023-03-14T22:38:00.403Z,59.80
2023-03-14T22:40:27.528Z,67.40
2023-03-14T22:42:54.727Z,48.90
2023-03-14T22:45:22.087Z,43.90
2023-03-14T22:47:49.242Z,50.30
2023-03-14T22:50:16.451Z,33.60
2023-03-14T22:52:43.519Z,44.60
2023-03-14T22:55:10.730Z,63.90
2023-03-14T22:57:39.394Z,35.30
2023-03-14T23:00:11.510Z,49.40
2023-03-14T23:02:39.550Z,48.30
2023-03-14T23:05:06.787Z,44.90
2023-03-14T23:07:33.965Z,36.00
2023-03-14T23:10:01.091Z,59.90
2023-03-14T23:12:28.056Z,37.30
2023-03-14T23:14:55.109Z,42.10
2023-03-14T23:17:24.921Z,34.20
2023-03-14T23:19:53.325Z,39.50
2023-03-14T23:22:21.065Z,53.20
2023-03-14T23:24:48.270Z,54.20
2023-03-14T23:27:18.179Z,49.60
2023-03-14T23:29:46.335Z,45.40
2023-03-14T23:32:15.044Z,32.80
2023-03-14T23:34:42.880Z,44.60
2023-03-14T23:37:13.261Z,37.80
2023-03-14T23:39:43.980Z,58.60
2023-03-14T23:42:12.001Z,52.80
2023-03-14T23:44:39.449Z,42.60
2023-03-14T23:47:06.787Z,45.60
2023-03-14T23:49:33.833Z,37.40
2023-03-14T23:52:01.111Z,56.00
2023-03-14T23:54:28.176Z,49.10
2023-03-14T23:56:55.198Z,35.90
2023-03-14T23:59:24.012Z,30.30
